createdAt,value
2022-08-14T00:01:32.568Z,11.95
2022-08-14T00:03:59.575Z,13.80
2022-08-14T00:06:29.250Z,11.48
2022-08-14T00:08:59.011Z,13.18
2022-08-14T00:11:31.186Z,13.18
2022-08-14T00:14:01.528Z,12.00
2022-08-14T00:16:40.975Z,12.75
2022-08-14T00:19:19.258Z,12.85
2022-08-14T00:21:51.088Z,16.63
2022-08-14T00:24:23.283Z,13.77
2022-08-14T00:27:02.290Z,13.32
2022-08-14T00:29:33.104Z,12.15
2022-08-14T00:32:52.447Z,13.48
2022-08-14T00:34:56.547Z,12.85
2022-08-14T00:37:23.502Z,12.60
2022-08-14T00:39:51.096Z,16.15
2022-08-14T00:42:55.158Z,12.07
2022-08-14T00:45:12.192Z,13.68
2022-08-14T00:47:45.498Z,12.63
2022-08-14T00:50:17.890Z,15.65
2022-08-14T00:52:50.833Z,14.52
2022-08-14T00:55:20.984Z,12.05
2022-08-14T00:58:09.062Z,13.77
2022-08-14T01:00:37.374Z,13.13
2022-08-14T01:03:19.018Z,12.82
2022-08-14T01:05:52.000Z,13.60
2022-08-14T01:08:51.626Z,14.02
2022-08-14T01:11:19.211Z,14.60
2022-08-14T01:13:55.730Z,12.48
2022-08-14T01:16:30.852Z,13.82
2022-08-14T01:19:17.341Z,14.10
2022-08-14T01:21:53.576Z,12.82
2022-08-14T01:24:22.928Z,14.18
2022-08-14T01:27:00.104Z,12.75
2022-08-14T01:29:58.300Z,12.15
2022-08-14T01:32:22.543Z,12.10
2022-08-14T01:35:21.145Z,11.88
2022-08-14T01:37:56.386Z,12.88
2022-08-14T01:43:14.223Z,13.27
2022-08-14T01:45:41.202Z,14.43
2022-08-14T01:48:13.173Z,13.82
2022-08-14T01:50:42.113Z,14.85
2022-08-14T01:53:10.555Z,13.27
2022-08-14T01:55:40.401Z,13.88
2022-08-14T01:58:18.942Z,13.18
2022-08-14T02:00:53.949Z,13.23
2022-08-14T02:03:21.197Z,15.88
2022-08-14T02:05:49.554Z,13.55
2022-08-14T02:08:16.980Z,14.85
2022-08-14T02:11:09.574Z,13.43
2022-08-14T02:13:37.212Z,12.88
2022-08-14T02:16:21.957Z,12.95
2022-08-14T02:18:49.907Z,11.77
2022-08-14T02:21:19.255Z,12.52
2022-08-14T02:23:48.059Z,13.65
2022-08-14T02:26:29.279Z,14.35
2022-08-14T02:29:04.625Z,16.52
2022-08-14T02:31:43.429Z,11.95
2022-08-14T02:34:22.541Z,13.60
2022-08-14T02:37:03.385Z,13.00
2022-08-14T02:39:34.561Z,13.73
2022-08-14T02:44:31.497Z,13.10
2022-08-14T02:47:14.966Z,13.30
2022-08-14T02:49:42.834Z,16.95
2022-08-14T02:52:26.857Z,15.15
2022-08-14T02:54:57.496Z,14.38
2022-08-14T02:57:40.078Z,12.52
2022-08-14T03:00:09.818Z,13.73
2022-08-14T03:02:56.085Z,14.57
2022-08-14T03:05:24.412Z,14.18
2022-08-14T03:07:52.867Z,13.57
2022-08-14T03:10:25.850Z,13.35
2022-08-14T03:12:55.534Z,14.18
2022-08-14T03:15:22.456Z,14.50
2022-08-14T03:17:56.831Z,13.73
2022-08-14T03:20:30.187Z,13.35
2022-08-14T03:23:02.913Z,14.65
2022-08-14T03:25:33.312Z,15.10
2022-08-14T03:28:03.985Z,15.00
2022-08-14T03:30:39.856Z,16.00
2022-08-14T03:33:12.568Z,15.60
2022-08-14T03:35:59.938Z,13.07
2022-08-14T03:39:13.080Z,14.18
2022-08-14T03:41:18.431Z,15.63
2022-08-14T03:46:52.788Z,14.48
2022-08-14T03:49:29.394Z,15.07
2022-08-14T03:51:58.313Z,13.40
2022-08-14T03:54:28.357Z,12.95
2022-08-14T03:57:00.564Z,13.55
2022-08-14T03:59:31.857Z,14.48
2022-08-14T04:02:02.225Z,14.88
2022-08-14T04:04:33.647Z,13.75
2022-08-14T04:07:01.076Z,14.20
2022-08-14T04:09:29.303Z,13.65
2022-08-14T04:11:58.227Z,14.15
2022-08-14T04:14:26.610Z,15.98
2022-08-14T04:16:53.480Z,14.93
2022-08-14T04:19:23.725Z,15.93
2022-08-14T04:22:03.224Z,17.00
2022-08-14T04:24:37.843Z,16.08
2022-08-14T04:27:09.749Z,15.43
2022-08-14T04:33:02.651Z,13.55
2022-08-14T04:34:57.764Z,13.32
2022-08-14T04:37:45.295Z,15.98
2022-08-14T04:40:32.589Z,13.40
2022-08-14T04:43:21.044Z,13.95
2022-08-14T04:45:50.979Z,15.02
2022-08-14T04:48:39.027Z,16.02
2022-08-14T04:51:13.424Z,17.40
2022-08-14T04:53:43.743Z,13.45
2022-08-14T04:56:31.492Z,13.27
2022-08-14T04:59:10.301Z,14.57
2022-08-14T05:01:41.789Z,15.88
2022-08-14T05:04:16.415Z,14.57
2022-08-14T05:06:49.206Z,15.57
2022-08-14T05:09:17.127Z,16.30
2022-08-14T05:11:44.850Z,15.40
2022-08-14T05:14:33.724Z,15.63
2022-08-14T05:17:01.889Z,14.80
2022-08-14T05:19:32.510Z,15.23
2022-08-14T05:22:16.764Z,15.18
2022-08-14T05:24:50.559Z,14.38
2022-08-14T05:27:22.218Z,19.65
2022-08-14T05:29:50.705Z,16.20
2022-08-14T05:32:17.820Z,15.25
2022-08-14T05:34:45.729Z,15.32
2022-08-14T05:37:13.247Z,18.33
2022-08-14T05:39:42.863Z,16.02
2022-08-14T05:42:21.395Z,14.80
2022-08-14T05:44:49.432Z,17.10
2022-08-14T05:47:20.955Z,15.70
2022-08-14T05:49:48.271Z,16.58
2022-08-14T05:52:17.979Z,16.70
2022-08-14T05:54:45.110Z,16.02
2022-08-14T05:57:13.205Z,17.92
2022-08-14T05:59:41.905Z,21.20
2022-08-14T06:02:09.894Z,16.45
2022-08-14T06:04:37.464Z,15.07
2022-08-14T06:07:04.456Z,15.38
2022-08-14T06:09:35.650Z,16.35
2022-08-14T06:12:03.327Z,17.58
2022-08-14T06:14:31.226Z,16.58
2022-08-14T06:16:58.787Z,18.48
2022-08-14T06:19:26.485Z,19.02
2022-08-14T06:21:59.063Z,17.98
2022-08-14T06:24:27.386Z,16.73
2022-08-14T06:27:04.649Z,18.92
2022-08-14T06:29:34.894Z,15.90
2022-08-14T06:32:38.282Z,17.13
2022-08-14T06:35:11.452Z,15.38
2022-08-14T06:37:46.792Z,14.90
2022-08-14T06:40:26.885Z,16.67
2022-08-14T06:43:00.445Z,14.30
2022-08-14T06:45:38.706Z,16.52
2022-08-14T06:48:14.554Z,17.58
2022-08-14T06:50:45.503Z,14.63
2022-08-14T06:53:14.660Z,18.13
2022-08-14T06:55:53.296Z,16.92
2022-08-14T06:58:29.397Z,16.17
2022-08-14T07:01:20.359Z,15.40
2022-08-14T07:04:18.899Z,14.80
2022-08-14T07:06:50.520Z,15.52
2022-08-14T07:09:22.653Z,21.02
2022-08-14T07:11:51.632Z,16.17
2022-08-14T07:14:18.568Z,16.58
2022-08-14T07:16:45.333Z,14.82
2022-08-14T07:19:12.300Z,15.38
2022-08-14T07:21:39.677Z,14.75
2022-08-14T07:24:09.759Z,16.67
2022-08-14T07:26:53.556Z,16.27
2022-08-14T07:29:26.054Z,15.82
2022-08-14T07:31:53.929Z,18.02
2022-08-14T07:34:35.957Z,16.55
2022-08-14T07:37:04.650Z,16.77
2022-08-14T07:39:34.505Z,14.13
2022-08-14T07:42:02.281Z,14.02
2022-08-14T07:44:35.914Z,16.13
2022-08-14T07:47:12.911Z,13.50
2022-08-14T07:49:41.539Z,15.38
2022-08-14T07:52:10.613Z,15.60
2022-08-14T07:54:41.393Z,15.65
2022-08-14T07:57:12.086Z,14.43
2022-08-14T07:59:43.780Z,16.55
2022-08-14T08:02:18.628Z,18.85
2022-08-14T08:04:49.513Z,15.93
2022-08-14T08:07:16.968Z,16.77
2022-08-14T08:09:51.015Z,15.73
2022-08-14T08:12:24.931Z,17.88
2022-08-14T08:15:03.040Z,15.98
2022-08-14T08:17:38.990Z,18.10
2022-08-14T08:20:16.140Z,16.67
2022-08-14T08:22:56.464Z,17.00
2022-08-14T08:28:00.557Z,17.40
2022-08-14T08:30:49.515Z,17.02
2022-08-14T08:33:18.576Z,18.63
2022-08-14T08:35:50.843Z,15.68
2022-08-14T08:39:14.721Z,19.83
2022-08-14T08:41:11.229Z,19.75
2022-08-14T08:43:39.313Z,16.20
2022-08-14T08:46:23.514Z,17.38
2022-08-14T08:51:42.810Z,17.92
2022-08-14T08:54:18.668Z,14.25
2022-08-14T08:56:48.368Z,15.45
2022-08-14T08:59:27.352Z,15.35
2022-08-14T09:02:05.064Z,15.25
2022-08-14T09:04:53.490Z,16.65
2022-08-14T09:07:27.326Z,16.38
2022-08-14T09:09:59.379Z,16.60
2022-08-14T09:12:32.370Z,15.02
2022-08-14T09:15:11.764Z,17.45
2022-08-14T09:17:42.347Z,14.32
2022-08-14T09:20:14.020Z,17.00
2022-08-14T09:22:55.053Z,13.05
2022-08-14T09:25:59.633Z,14.20
2022-08-14T09:28:09.370Z,15.05
2022-08-14T09:30:40.188Z,13.98
2022-08-14T09:33:35.529Z,16.13
2022-08-14T09:36:46.614Z,13.82
2022-08-14T09:39:25.609Z,15.85
2022-08-14T09:42:21.369Z,13.68
2022-08-14T09:45:16.857Z,13.77
2022-08-14T09:47:52.174Z,15.35
2022-08-14T09:50:25.780Z,13.10
2022-08-14T09:52:58.873Z,14.70
2022-08-14T09:55:28.194Z,14.80
2022-08-14T09:58:19.872Z,14.75
2022-08-14T10:01:00.508Z,14.50
2022-08-14T10:03:33.875Z,13.55
2022-08-14T10:06:09.926Z,13.35
2022-08-14T10:08:48.917Z,13.68
2022-08-14T10:11:23.481Z,14.60
2022-08-14T10:13:54.343Z,17.50
2022-08-14T10:16:33.678Z,12.02
2022-08-14T10:19:10.929Z,15.57
2022-08-14T10:23:12.018Z,12.73
2022-08-14T10:24:37.300Z,11.93
2022-08-14T10:27:16.266Z,11.73
2022-08-14T10:29:54.431Z,12.48
2022-08-14T10:32:29.137Z,13.45
2022-08-14T10:35:10.917Z,11.43
2022-08-14T10:37:49.437Z,12.85
2022-08-14T10:40:37.506Z,12.52
2022-08-14T10:43:25.294Z,12.73
2022-08-14T10:46:03.961Z,13.73
2022-08-14T10:49:04.230Z,12.00
2022-08-14T10:51:36.144Z,13.30
2022-08-14T10:54:26.267Z,11.98
2022-08-14T10:56:55.816Z,11.18
2022-08-14T10:59:31.261Z,11.73
2022-08-14T11:02:03.129Z,10.85
2022-08-14T11:04:30.274Z,11.25
2022-08-14T11:06:58.434Z,11.38
2022-08-14T11:09:26.327Z,11.50
2022-08-14T11:12:36.692Z,13.15
2022-08-14T11:15:03.206Z,10.63
2022-08-14T11:17:33.970Z,11.98
2022-08-14T11:20:02.807Z,10.80
2022-08-14T11:22:56.209Z,11.40
2022-08-14T11:25:20.394Z,12.13
2022-08-14T11:27:49.449Z,10.18
2022-08-14T11:30:51.406Z,12.27
2022-08-14T11:33:07.555Z,10.40
2022-08-14T11:35:43.975Z,12.30
2022-08-14T11:38:14.756Z,12.27
2022-08-14T11:40:47.197Z,13.90
2022-08-14T11:43:15.345Z,11.65
2022-08-14T11:45:48.599Z,11.68
2022-08-14T11:48:59.676Z,11.57
2022-08-14T11:51:14.472Z,10.40
2022-08-14T11:53:50.087Z,11.25
2022-08-14T11:56:17.664Z,11.65
2022-08-14T11:58:51.167Z,11.85
2022-08-14T12:01:28.440Z,13.20
2022-08-14T12:03:58.931Z,13.13
2022-08-14T12:06:39.232Z,12.25
2022-08-14T12:09:08.674Z,11.68
2022-08-14T12:11:43.754Z,11.05
2022-08-14T12:17:09.526Z,11.95
2022-08-14T12:19:56.696Z,11.90
2022-08-14T12:22:34.019Z,15.40
2022-08-14T12:25:01.741Z,11.25
2022-08-14T12:27:37.869Z,11.35
2022-08-14T12:30:09.791Z,12.57
2022-08-14T12:32:47.274Z,13.20
2022-08-14T12:35:14.584Z,14.82
2022-08-14T12:37:49.060Z,12.50
2022-08-14T12:40:19.654Z,13.02
2022-08-14T12:45:32.771Z,13.80
2022-08-14T12:48:21.337Z,13.07
2022-08-14T12:50:52.197Z,11.88
2022-08-14T12:53:21.093Z,13.00
2022-08-14T12:56:22.646Z,12.25
2022-08-14T12:58:54.909Z,12.48
2022-08-14T13:01:25.447Z,12.52
2022-08-14T13:04:12.587Z,13.57
2022-08-14T13:06:41.721Z,12.93
2022-08-14T13:09:14.067Z,10.90
2022-08-14T13:11:59.165Z,14.10
2022-08-14T13:14:38.730Z,11.60
2022-08-14T13:17:07.163Z,10.60
2022-08-14T13:19:35.789Z,14.00
2022-08-14T13:22:09.507Z,11.50
2022-08-14T13:24:39.478Z,11.70
2022-08-14T13:27:10.042Z,11.23
2022-08-14T13:29:46.908Z,13.07
2022-08-14T13:32:15.135Z,12.10
2022-08-14T13:34:45.369Z,10.73
2022-08-14T13:37:14.703Z,11.32
2022-08-14T13:39:56.223Z,12.35
2022-08-14T13:42:27.783Z,11.88
2022-08-14T13:45:00.338Z,12.85
2022-08-14T13:50:04.771Z,13.13
2022-08-14T13:52:51.652Z,12.57
2022-08-14T13:55:25.882Z,12.90
2022-08-14T13:58:04.315Z,11.57
2022-08-14T14:00:53.041Z,11.57
2022-08-14T14:03:24.252Z,11.48
2022-08-14T14:05:54.325Z,10.82
2022-08-14T14:08:45.797Z,12.10
2022-08-14T14:11:13.190Z,14.23
2022-08-14T14:13:45.138Z,14.32
2022-08-14T14:16:15.535Z,12.07
2022-08-14T14:18:56.389Z,11.20
2022-08-14T14:21:28.994Z,11.25
2022-08-14T14:23:57.113Z,10.90
2022-08-14T14:26:24.886Z,11.27
2022-08-14T14:28:56.699Z,12.80
2022-08-14T14:31:30.035Z,16.48
2022-08-14T14:34:07.732Z,12.90
2022-08-14T14:36:50.151Z,12.02
2022-08-14T14:39:25.457Z,11.80
2022-08-14T14:41:56.754Z,11.60
2022-08-14T14:44:26.883Z,11.80
2022-08-14T14:49:22.236Z,11.90
2022-08-14T14:51:58.947Z,11.75
2022-08-14T14:54:31.232Z,11.25
2022-08-14T14:57:09.260Z,9.63
2022-08-14T14:59:37.447Z,14.93
2022-08-14T15:02:09.306Z,11.00
2022-08-14T15:04:38.390Z,11.38
2022-08-14T15:07:07.070Z,10.60
2022-08-14T15:09:34.668Z,13.93
2022-08-14T15:12:05.535Z,11.25
2022-08-14T15:14:56.122Z,11.32
2022-08-14T15:17:40.803Z,15.35
2022-08-14T15:20:11.479Z,11.88
2022-08-14T15:22:50.935Z,12.32
2022-08-14T15:25:18.917Z,10.70
2022-08-14T15:27:50.115Z,10.27
2022-08-14T15:30:23.681Z,11.32
2022-08-14T15:32:53.079Z,11.65
2022-08-14T15:35:22.382Z,11.35
2022-08-14T15:37:55.478Z,13.38
2022-08-14T15:40:23.130Z,9.50
2022-08-14T15:42:50.113Z,11.00
2022-08-14T15:45:17.222Z,14.93
2022-08-14T15:47:44.368Z,12.38
2022-08-14T15:50:12.752Z,10.18
2022-08-14T15:52:42.855Z,10.40
2022-08-14T15:55:14.548Z,13.07
2022-08-14T15:58:02.004Z,11.85
2022-08-14T16:00:54.159Z,9.38
2022-08-14T16:03:27.990Z,13.50
2022-08-14T16:06:15.433Z,12.73
2022-08-14T16:08:58.522Z,13.77
2022-08-14T16:11:28.672Z,14.48
2022-08-14T16:13:59.487Z,9.98
2022-08-14T16:16:34.571Z,9.73
2022-08-14T16:19:19.343Z,10.55
2022-08-14T16:21:58.452Z,10.43
2022-08-14T16:25:02.127Z,11.63
2022-08-14T16:27:33.648Z,11.70
2022-08-14T16:30:06.380Z,10.25
2022-08-14T16:32:55.113Z,11.60
2022-08-14T16:35:42.593Z,9.95
2022-08-14T16:38:44.850Z,10.63
2022-08-14T16:41:23.078Z,13.15
2022-08-14T16:44:31.602Z,10.85
2022-08-14T16:47:05.650Z,10.05
2022-08-14T16:50:02.508Z,11.90
2022-08-14T16:52:25.794Z,10.65
2022-08-14T16:55:09.437Z,9.80
2022-08-14T16:57:58.620Z,10.52
2022-08-14T17:00:43.654Z,12.40
2022-08-14T17:03:12.279Z,12.93
2022-08-14T17:05:43.514Z,11.07
2022-08-14T17:08:32.563Z,12.32
2022-08-14T17:10:58.167Z,12.60
2022-08-14T17:13:58.595Z,10.23
2022-08-14T17:16:25.157Z,11.05
2022-08-14T17:19:00.549Z,11.13
2022-08-14T17:21:31.365Z,10.65
2022-08-14T17:24:51.643Z,12.82
2022-08-14T17:26:55.103Z,10.75
2022-08-14T17:29:22.449Z,10.55
2022-08-14T17:32:06.771Z,9.95
2022-08-14T17:34:53.819Z,9.55
2022-08-14T17:37:45.236Z,11.73
2022-08-14T17:40:16.524Z,10.35
2022-08-14T17:42:51.393Z,10.93
2022-08-14T17:45:43.202Z,9.90
2022-08-14T17:49:14.970Z,11.13
2022-08-14T17:51:17.062Z,13.55
2022-08-14T17:54:01.471Z,11.57
2022-08-14T17:56:31.808Z,12.52
2022-08-14T17:59:06.192Z,12.07
2022-08-14T18:01:46.539Z,12.65
2022-08-14T18:04:28.781Z,11.48
2022-08-14T18:07:16.050Z,12.50
2022-08-14T18:09:57.306Z,10.77
2022-08-14T18:12:36.830Z,10.52
2022-08-14T18:15:15.957Z,10.88
2022-08-14T18:17:52.907Z,10.88
2022-08-14T18:21:42.450Z,10.65
2022-08-14T18:23:13.502Z,11.43
2022-08-14T18:25:52.913Z,12.55
2022-08-14T18:28:51.061Z,27.33
2022-08-14T18:31:44.114Z,28.08
2022-08-14T18:34:31.230Z,23.52
2022-08-14T18:37:14.349Z,20.60
2022-08-14T18:40:02.540Z,11.48
2022-08-14T18:42:34.889Z,11.45
2022-08-14T18:45:12.338Z,13.10
2022-08-14T18:48:05.101Z,13.32
2022-08-14T18:50:32.143Z,13.10
2022-08-14T18:53:08.968Z,11.80
2022-08-14T18:55:37.609Z,12.15
2022-08-14T18:58:31.473Z,14.45
2022-08-14T19:01:04.542Z,11.27
2022-08-14T19:03:37.161Z,12.65
2022-08-14T19:06:10.868Z,13.90
2022-08-14T19:08:49.692Z,11.07
2022-08-14T19:11:32.533Z,16.35
2022-08-14T19:14:04.710Z,25.02
2022-08-14T19:16:36.938Z,28.50
2022-08-14T19:19:08.868Z,19.63
2022-08-14T19:21:40.807Z,12.88
2022-08-14T19:24:27.914Z,13.02
2022-08-14T19:27:22.938Z,12.80
2022-08-14T19:29:51.860Z,10.77
2022-08-14T19:32:40.351Z,11.88
2022-08-14T19:35:49.036Z,12.90
2022-08-14T19:38:47.888Z,10.95
2022-08-14T19:41:16.137Z,10.77
2022-08-14T19:43:55.838Z,10.38
2022-08-14T19:46:38.758Z,10.90
2022-08-14T19:49:21.586Z,11.63
2022-08-14T19:52:03.731Z,12.02
2022-08-14T19:54:37.009Z,10.07
2022-08-14T19:57:04.472Z,11.00
2022-08-14T19:59:36.531Z,13.55
2022-08-14T20:02:05.864Z,11.15
2022-08-14T20:04:46.415Z,11.65
2022-08-14T20:08:00.523Z,12.63
2022-08-14T20:11:07.094Z,11.55
2022-08-14T20:13:32.142Z,11.35
2022-08-14T20:16:12.296Z,10.60
2022-08-14T20:18:51.618Z,10.57
2022-08-14T20:21:21.502Z,11.27
2022-08-14T20:23:49.493Z,11.77
2022-08-14T20:26:31.684Z,10.68
2022-08-14T20:29:04.625Z,10.05
2022-08-14T20:31:37.348Z,12.93
2022-08-14T20:34:18.702Z,12.75
2022-08-14T20:37:01.871Z,17.00
2022-08-14T20:39:34.146Z,18.40
2022-08-14T20:42:30.380Z,18.38
2022-08-14T20:45:24.203Z,13.20
2022-08-14T20:48:07.221Z,10.45
2022-08-14T20:50:36.666Z,10.35
2022-08-14T20:53:27.468Z,13.40
2022-08-14T20:56:00.514Z,11.18
2022-08-14T20:58:43.409Z,10.65
2022-08-14T21:01:18.529Z,14.02
2022-08-14T21:03:57.924Z,12.52
2022-08-14T21:06:30.942Z,11.10
2022-08-14T21:09:18.923Z,16.95
2022-08-14T21:12:03.116Z,23.90
2022-08-14T21:14:30.135Z,18.98
2022-08-14T21:16:58.975Z,11.88
2022-08-14T21:19:26.847Z,11.32
2022-08-14T21:21:55.666Z,12.82
2022-08-14T21:24:39.750Z,11.45
2022-08-14T21:27:20.004Z,10.60
2022-08-14T21:29:56.014Z,10.85
2022-08-14T21:32:35.007Z,10.85
2022-08-14T21:35:09.875Z,10.63
2022-08-14T21:37:43.678Z,12.40
2022-08-14T21:40:33.239Z,15.05
2022-08-14T21:43:00.190Z,11.40
2022-08-14T21:45:27.077Z,11.32
2022-08-14T21:47:56.342Z,14.82
2022-08-14T21:50:39.844Z,13.93
2022-08-14T21:53:10.931Z,10.88
2022-08-14T21:55:37.961Z,11.40
2022-08-14T21:58:52.713Z,11.30
2022-08-14T22:00:54.002Z,12.48
2022-08-14T22:03:24.177Z,12.00
2022-08-14T22:05:53.196Z,12.85
2022-08-14T22:08:22.417Z,14.38
2022-08-14T22:10:54.612Z,12.77
2022-08-14T22:13:26.428Z,13.25
2022-08-14T22:15:59.609Z,10.80
2022-08-14T22:18:29.749Z,14.25
2022-08-14T22:20:57.387Z,11.82
2022-08-14T22:23:25.707Z,11.02
2022-08-14T22:25:53.746Z,10.93
2022-08-14T22:28:25.399Z,10.82
2022-08-14T22:30:54.942Z,11.80
2022-08-14T22:33:26.649Z,12.57
2022-08-14T22:35:58.891Z,13.60
2022-08-14T22:38:36.027Z,10.95
2022-08-14T22:41:25.371Z,10.57
2022-08-14T22:44:06.553Z,13.60
2022-08-14T22:46:33.641Z,11.55
2022-08-14T22:49:16.134Z,13.50
2022-08-14T22:51:48.738Z,13.10
2022-08-14T22:54:52.258Z,11.30
2022-08-14T22:57:05.105Z,11.57
2022-08-14T22:59:38.903Z,12.02
2022-08-14T23:02:12.671Z,11.68
2022-08-14T23:04:53.803Z,13.68
2022-08-14T23:07:25.910Z,11.85
2022-08-14T23:10:32.492Z,11.05
2022-08-14T23:13:00.256Z,12.02
2022-08-14T23:15:29.836Z,11.23
2022-08-14T23:17:57.510Z,13.23
2022-08-14T23:20:29.485Z,11.15
2022-08-14T23:22:57.798Z,11.43
2022-08-14T23:25:56.812Z,12.57
2022-08-14T23:28:33.431Z,10.70
2022-08-14T23:31:10.916Z,14.32
2022-08-14T23:36:31.944Z,13.13
2022-08-14T23:39:00.220Z,12.57
2022-08-14T23:41:27.113Z,11.82
2022-08-14T23:44:15.313Z,10.75
2022-08-14T23:46:44.203Z,12.45
2022-08-14T23:49:12.402Z,12.88
2022-08-14T23:51:39.515Z,11.85
2022-08-14T23:54:48.392Z,11.13
2022-08-14T23:57:00.155Z,13.13
2022-08-14T23:59:30.263Z,11.02
